Time;durP1;ratioP1;P1;durP2;ratioP2;P2;SDS_P1;SDS_P2;PMS_P1;PMS_P2;Temp;Humidity;BMP_temperature;BMP_pressure;BME280_temperature;BME280_humidity;BME280_pressure;Samples;Min_cycle;Max_cycle;Signal;HPM_P1;HPM_P2
2021/10/23 00:01:08;;;;;;;9.18;1.58;;;6.70;99.90;;;;;;5039874;28;20065;-62
2021/10/23 00:03:33;;;;;;;9.57;1.45;;;6.70;99.90;;;;;;5006766;28;1181705;-62
2021/10/23 00:06:00;;;;;;;9.90;2.00;;;6.80;99.90;;;;;;5046018;28;20706;-62
2021/10/23 00:08:25;;;;;;;2.88;1.45;;;6.80;99.90;;;;;;5047261;28;20536;-62
2021/10/23 00:10:51;;;;;;;8.40;1.83;;;6.70;99.90;;;;;;5047459;28;20124;-62
2021/10/23 00:13:16;;;;;;;7.25;1.10;;;6.70;99.90;;;;;;5048223;28;20091;-63
2021/10/23 00:15:42;;;;;;;4.45;1.58;;;6.70;99.90;;;;;;5043950;28;20358;-62
2021/10/23 00:18:08;;;;;;;6.53;1.67;;;6.60;99.90;;;;;;5043217;28;20155;-63
2021/10/23 00:20:34;;;;;;;12.70;1.52;;;6.60;99.90;;;;;;5039893;28;20057;-62
2021/10/23 00:23:00;;;;;;;8.30;1.23;;;6.60;99.90;;;;;;5043017;28;20550;-63
2021/10/23 00:25:26;;;;;;;6.03;1.88;;;6.60;99.90;;;;;;5048465;28;20112;-62
2021/10/23 00:27:55;;;;;;;6.28;1.27;;;6.50;99.90;;;;;;5042759;28;20037;-62
2021/10/23 00:30:21;;;;;;;7.72;1.08;;;6.50;99.90;;;;;;5048138;28;20377;-63
2021/10/23 00:32:47;;;;;;;7.60;1.25;;;6.50;99.90;;;;;;5047898;28;20404;-63
2021/10/23 00:35:13;;;;;;;11.75;1.50;;;6.50;99.90;;;;;;5044025;28;20099;-63
2021/10/23 00:37:39;;;;;;;8.63;1.63;;;6.50;99.90;;;;;;5048098;28;20029;-62
2021/10/23 00:40:05;;;;;;;11.98;2.05;;;6.50;99.90;;;;;;5029171;28;20037;-61
2021/10/23 00:42:32;;;;;;;6.35;1.23;;;6.60;99.90;;;;;;5047876;28;20029;-62
2021/10/23 00:44:57;;;;;;;8.25;1.33;;;6.60;99.90;;;;;;5046992;28;20064;-62
2021/10/23 00:47:23;;;;;;;7.13;1.45;;;6.60;99.90;;;;;;5048086;28;20048;-62
2021/10/23 00:49:52;;;;;;;6.03;2.30;;;6.60;99.90;;;;;;5047199;28;20041;-64
2021/10/23 00:52:19;;;;;;;7.90;1.88;;;6.60;99.90;;;;;;5030416;28;20037;-61
2021/10/23 00:54:45;;;;;;;5.28;1.75;;;6.60;99.90;;;;;;5048245;28;20033;-62
2021/10/23 00:57:11;;;;;;;15.15;1.90;;;6.50;99.90;;;;;;5048361;28;20056;-62
2021/10/23 00:59:36;;;;;;;10.65;1.60;;;6.50;99.90;;;;;;5051846;28;20082;-61
2021/10/23 01:02:03;;;;;;;10.00;1.75;;;6.40;99.90;;;;;;5051223;28;20088;-62
2021/10/23 01:04:29;;;;;;;7.53;1.00;;;6.40;99.90;;;;;;5051865;28;20033;-62
2021/10/23 01:06:56;;;;;;;5.47;1.65;;;6.40;99.90;;;;;;5051227;28;20037;-62
2021/10/23 01:09:22;;;;;;;4.03;1.35;;;6.40;99.90;;;;;;5052031;28;20029;-62
2021/10/23 01:11:49;;;;;;;5.10;0.90;;;6.50;99.90;;;;;;5033659;28;20086;-64
2021/10/23 01:14:17;;;;;;;5.97;1.02;;;6.50;99.90;;;;;;5051474;28;20032;-62
2021/10/23 01:16:43;;;;;;;6.32;2.35;;;6.50;99.90;;;;;;5052147;28;20692;-62
2021/10/23 01:19:09;;;;;;;4.03;1.00;;;6.50;99.90;;;;;;5042273;28;20120;-65
2021/10/23 01:21:35;;;;;;;6.65;1.73;;;6.40;99.90;;;;;;5033856;28;20036;-63
2021/10/23 01:24:03;;;;;;;14.98;1.73;;;6.40;99.90;;;;;;5050774;28;20029;-61
2021/10/23 01:26:29;;;;;;;8.45;1.25;;;6.30;99.90;;;;;;5049458;28;20110;-61
2021/10/23 01:28:54;;;;;;;7.88;1.20;;;6.30;99.90;;;;;;5048592;28;20627;-61
2021/10/23 01:31:20;;;;;;;5.57;1.05;;;6.30;99.90;;;;;;5051616;28;20614;-62
2021/10/23 01:33:45;;;;;;;7.38;1.40;;;6.20;99.90;;;;;;5033483;28;20025;-62
2021/10/23 01:36:16;;;;;;;4.20;0.90;;;6.20;99.90;;;;;;5050756;28;20115;-62
2021/10/23 01:38:43;;;;;;;4.68;1.00;;;6.20;99.90;;;;;;5047840;28;20400;-62
2021/10/23 01:41:09;;;;;;;4.38;1.10;;;6.10;99.90;;;;;;5046775;28;20045;-61
2021/10/23 01:43:35;;;;;;;11.38;1.10;;;6.20;99.90;;;;;;5051016;28;20048;-60
2021/10/23 01:46:01;;;;;;;5.20;0.80;;;6.10;99.90;;;;;;5050224;28;20047;-63
2021/10/23 01:48:26;;;;;;;7.65;1.10;;;6.10;99.90;;;;;;5051045;28;20040;-61
2021/10/23 01:50:52;;;;;;;6.13;0.90;;;6.00;99.90;;;;;;5050262;28;20033;-63
2021/10/23 01:53:18;;;;;;;2.30;0.70;;;6.00;99.90;;;;;;5032950;28;20033;-63
2021/10/23 01:55:45;;;;;;;5.03;0.73;;;6.00;99.90;;;;;;5050837;28;20156;-61
2021/10/23 01:58:11;;;;;;;3.53;1.05;;;6.00;99.90;;;;;;5049983;28;20039;-62
2021/10/23 02:00:37;;;;;;;6.15;1.17;;;5.90;99.90;;;;;;5051106;28;20678;-62
2021/10/23 02:03:02;;;;;;;5.95;1.90;;;5.90;99.90;;;;;;5049814;28;20420;-62
2021/10/23 02:05:28;;;;;;;11.60;1.33;;;5.90;99.90;;;;;;5050767;28;20374;-61
2021/10/23 02:07:54;;;;;;;6.35;1.13;;;5.80;99.90;;;;;;5031494;28;20041;-64
2021/10/23 02:10:19;;;;;;;6.95;0.88;;;5.80;99.90;;;;;;5050604;28;20033;-61
2021/10/23 02:12:45;;;;;;;6.03;1.00;;;5.80;99.90;;;;;;5050751;28;20037;-61
2021/10/23 02:15:11;;;;;;;5.50;0.60;;;5.80;99.90;;;;;;5049724;28;20541;-60
2021/10/23 02:17:37;;;;;;;4.57;1.48;;;5.80;99.90;;;;;;5050171;28;20037;-62
2021/10/23 02:20:10;;;;;;;4.95;1.27;;;5.70;99.90;;;;;;5049482;28;20040;-61
2021/10/23 02:22:37;;;;;;;4.80;1.13;;;5.70;99.90;;;;;;5045497;28;20049;-62
2021/10/23 02:25:04;;;;;;;8.75;1.35;;;5.70;99.90;;;;;;5048683;28;20025;-61
2021/10/23 02:27:29;;;;;;;6.10;1.23;;;5.60;99.90;;;;;;5027515;28;20037;-63
2021/10/23 02:29:55;;;;;;;2.88;1.13;;;5.60;99.90;;;;;;5049251;28;20033;-61
2021/10/23 02:32:20;;;;;;;2.58;0.77;;;5.60;99.90;;;;;;5050281;28;20098;-64
2021/10/23 02:34:46;;;;;;;2.90;0.95;;;5.60;99.90;;;;;;5050196;28;20104;-63
2021/10/23 02:37:12;;;;;;;6.20;1.00;;;5.60;99.90;;;;;;5049103;28;20040;-61
2021/10/23 02:39:37;;;;;;;7.97;1.63;;;5.60;99.90;;;;;;5049887;28;20025;-61
2021/10/23 02:42:03;;;;;;;4.13;1.23;;;5.50;99.90;;;;;;5048991;28;20048;-61
2021/10/23 02:44:29;;;;;;;5.13;0.88;;;5.50;99.90;;;;;;5049981;28;20021;-62
2021/10/23 02:46:54;;;;;;;6.55;0.90;;;5.40;99.90;;;;;;5049202;28;20064;-64
2021/10/23 02:49:20;;;;;;;6.25;0.80;;;5.40;99.90;;;;;;5031913;28;20125;-62
2021/10/23 02:51:46;;;;;;;6.18;1.27;;;5.40;99.90;;;;;;5049629;28;20115;-61
2021/10/23 02:54:12;;;;;;;3.97;1.40;;;5.40;99.90;;;;;;5048886;28;20032;-61
2021/10/23 02:56:38;;;;;;;8.68;0.93;;;5.40;99.90;;;;;;5049629;28;20025;-62
2021/10/23 02:59:04;;;;;;;4.55;1.08;;;5.40;99.90;;;;;;5048793;28;20087;-61
2021/10/23 03:01:30;;;;;;;1.95;0.68;;;5.40;99.90;;;;;;5049871;28;20025;-61
2021/10/23 03:03:56;;;;;;;1.77;0.70;;;5.40;99.90;;;;;;5048559;28;20044;-62
2021/10/23 03:06:22;;;;;;;4.63;1.13;;;5.40;99.90;;;;;;5031502;28;20024;-62
2021/10/23 03:08:47;;;;;;;5.10;1.02;;;5.40;99.90;;;;;;5049392;28;20033;-61
2021/10/23 03:11:13;;;;;;;4.75;0.85;;;5.30;99.90;;;;;;5049044;28;20033;-63
2021/10/23 03:13:39;;;;;;;6.03;1.27;;;5.30;99.90;;;;;;5048131;28;20063;-65
2021/10/23 03:16:05;;;;;;;7.80;1.85;;;5.30;99.90;;;;;;5048688;28;20068;-62
2021/10/23 03:18:31;;;;;;;7.05;1.10;;;5.30;99.90;;;;;;5048601;28;20538;-61
2021/10/23 03:20:57;;;;;;;2.88;0.90;;;5.30;99.90;;;;;;5047258;28;20542;-62
2021/10/23 03:23:23;;;;;;;4.10;0.75;;;5.30;99.90;;;;;;5049164;28;20382;-62
2021/10/23 03:25:49;;;;;;;7.07;1.20;;;5.30;99.90;;;;;;5048215;28;20040;-64
2021/10/23 03:28:14;;;;;;;3.45;0.70;;;5.30;99.90;;;;;;5047888;28;20033;-61
2021/10/23 03:30:40;;;;;;;7.10;0.90;;;5.30;99.90;;;;;;5049225;28;20033;-61
2021/10/23 03:33:06;;;;;;;2.45;0.60;;;5.20;99.90;;;;;;5048225;28;20029;-62
2021/10/23 03:35:31;;;;;;;2.88;0.80;;;5.30;99.90;;;;;;5048993;28;20041;-61
2021/10/23 03:37:57;;;;;;;4.60;0.77;;;5.20;99.90;;;;;;5048085;28;20489;-62
2021/10/23 03:40:23;;;;;;;3.05;0.73;;;5.30;99.90;;;;;;5048780;28;20040;-61
2021/10/23 03:42:49;;;;;;;3.13;0.73;;;5.20;99.90;;;;;;5047922;28;20378;-63
2021/10/23 03:45:15;;;;;;;2.38;0.60;;;5.20;99.90;;;;;;5048960;28;20084;-61
2021/10/23 03:47:40;;;;;;;4.47;0.68;;;5.20;99.90;;;;;;5048932;28;20025;-61
2021/10/23 03:50:06;;;;;;;6.97;0.80;;;5.10;99.90;;;;;;5047623;28;20021;-62
2021/10/23 03:52:32;;;;;;;2.75;1.02;;;5.10;99.90;;;;;;5049008;28;20036;-62
2021/10/23 03:54:58;;;;;;;1.55;0.47;;;5.10;99.90;;;;;;5047626;28;20025;-61
2021/10/23 03:57:23;;;;;;;3.15;0.43;;;5.00;99.90;;;;;;5030983;28;20057;-62
2021/10/23 03:59:49;;;;;;;2.00;0.57;;;5.00;99.90;;;;;;5047694;28;20037;-62
2021/10/23 04:02:15;;;;;;;4.80;0.88;;;5.00;99.90;;;;;;5048642;28;20033;-62
2021/10/23 04:04:40;;;;;;;5.18;0.70;;;5.00;99.90;;;;;;5048339;28;20116;-61
2021/10/23 04:07:06;;;;;;;1.65;0.50;;;5.00;99.90;;;;;;5047807;28;20406;-62
2021/10/23 04:09:32;;;;;;;6.75;0.80;;;5.00;99.90;;;;;;5048513;28;20032;-62
2021/10/23 04:11:57;;;;;;;4.25;0.70;;;5.00;99.90;;;;;;5047426;28;20049;-61
2021/10/23 04:14:23;;;;;;;3.05;0.85;;;5.00;99.90;;;;;;5048701;28;20040;-61
2021/10/23 04:16:49;;;;;;;5.00;1.25;;;5.00;99.90;;;;;;5047526;28;20087;-64
2021/10/23 04:19:15;;;;;;;3.97;0.70;;;5.00;99.90;;;;;;5047766;28;20116;-66
2021/10/23 04:21:42;;;;;;;4.05;0.75;;;4.90;99.90;;;;;;5048452;28;20535;-63
2021/10/23 04:24:09;;;;;;;6.55;1.00;;;4.90;99.90;;;;;;5047399;28;20082;-61
2021/10/23 04:26:35;;;;;;;4.38;0.63;;;4.90;99.90;;;;;;5026073;28;20038;-62
2021/10/23 04:29:01;;;;;;;5.38;1.25;;;4.90;99.90;;;;;;5047252;28;20022;-62
2021/10/23 04:31:27;;;;;;;5.95;0.90;;;5.00;99.90;;;;;;5048029;28;20052;-62
2021/10/23 04:33:52;;;;;;;2.35;0.82;;;5.00;99.90;;;;;;5046823;28;20120;-62
2021/10/23 04:36:18;;;;;;;5.45;0.77;;;5.00;99.90;;;;;;5048350;28;20116;-61
2021/10/23 04:38:43;;;;;;;4.28;0.85;;;5.00;99.90;;;;;;5047968;28;20280;-62
2021/10/23 04:41:09;;;;;;;1.45;0.77;;;5.00;99.90;;;;;;5047292;28;20048;-63
2021/10/23 04:43:34;;;;;;;6.00;1.15;;;5.00;99.90;;;;;;5048241;28;20029;-60
2021/10/23 04:46:00;;;;;;;7.95;0.98;;;4.90;99.90;;;;;;5047337;28;20025;-61
2021/10/23 04:48:25;;;;;;;4.10;0.70;;;4.90;99.90;;;;;;5047629;28;20037;-62
2021/10/23 04:50:51;;;;;;;10.20;1.45;;;4.90;99.90;;;;;;5047101;28;20512;-62
2021/10/23 04:53:17;;;;;;;3.08;1.08;;;4.90;99.90;;;;;;5047865;28;20037;-61
2021/10/23 04:55:42;;;;;;;2.95;0.80;;;4.90;99.90;;;;;;5048124;28;20117;-61
2021/10/23 04:58:08;;;;;;;7.00;0.90;;;4.90;99.90;;;;;;5046736;28;20127;-61
2021/10/23 05:00:33;;;;;;;6.25;1.13;;;4.90;99.90;;;;;;5048103;28;20040;-62
2021/10/23 05:02:59;;;;;;;4.32;0.93;;;4.90;99.90;;;;;;5046886;28;20107;-61
2021/10/23 05:05:24;;;;;;;2.15;0.70;;;4.90;99.90;;;;;;5047584;28;20044;-61
2021/10/23 05:07:50;;;;;;;3.70;1.10;;;4.90;99.90;;;;;;5045482;28;20099;-62
2021/10/23 05:10:16;;;;;;;8.93;1.00;;;4.80;99.90;;;;;;5047707;28;20033;-61
2021/10/23 05:12:41;;;;;;;7.25;1.98;;;4.80;99.90;;;;;;5047930;28;20078;-61
2021/10/23 05:15:07;;;;;;;6.45;1.25;;;4.80;99.90;;;;;;5029028;28;20068;-61
2021/10/23 05:17:33;;;;;;;3.58;1.02;;;4.70;99.90;;;;;;5047028;28;20095;-62
2021/10/23 05:19:59;;;;;;;2.15;0.73;;;4.70;99.90;;;;;;5046804;28;20438;-61
2021/10/23 05:22:24;;;;;;;4.57;1.17;;;4.70;99.90;;;;;;5048078;28;20478;-61
2021/10/23 05:24:50;;;;;;;2.92;0.95;;;4.70;99.90;;;;;;5046591;28;20082;-61
2021/10/23 05:27:16;;;;;;;11.10;1.73;;;4.70;99.90;;;;;;5043823;28;20505;-61
2021/10/23 05:29:42;;;;;;;7.93;1.85;;;4.70;99.90;;;;;;5047331;28;20048;-62
2021/10/23 05:32:08;;;;;;;7.00;2.17;;;4.80;99.90;;;;;;5046935;28;20033;-62
2021/10/23 05:34:33;;;;;;;5.13;1.40;;;4.90;99.90;;;;;;5047691;28;20037;-62
2021/10/23 05:36:59;;;;;;;5.45;1.20;;;5.00;99.90;;;;;;5046891;28;20037;-61
2021/10/23 05:39:24;;;;;;;6.43;1.23;;;5.00;99.90;;;;;;5047694;28;20041;-62
2021/10/23 05:41:50;;;;;;;7.28;1.20;;;5.10;99.90;;;;;;5047157;28;20059;-63
2021/10/23 05:44:16;;;;;;;4.57;2.30;;;5.10;99.90;;;;;;5050662;28;20098;-61
2021/10/23 05:46:41;;;;;;;5.30;1.65;;;5.10;99.90;;;;;;5051148;28;20401;-62
2021/10/23 05:49:07;;;;;;;7.07;1.98;;;5.10;99.90;;;;;;5050043;28;20520;-61
2021/10/23 05:51:32;;;;;;;7.93;1.80;;;5.20;99.90;;;;;;5051229;28;20108;-61
2021/10/23 05:53:58;;;;;;;5.43;1.60;;;5.20;99.90;;;;;;5050036;28;20033;-60
2021/10/23 05:56:24;;;;;;;8.40;1.20;;;5.30;99.90;;;;;;5051126;28;20744;-61
2021/10/23 05:58:51;;;;;;;12.68;2.45;;;5.40;99.90;;;;;;5032034;28;20040;-65
2021/10/23 06:01:16;;;;;;;6.28;1.80;;;5.40;99.90;;;;;;5050676;28;20123;-63
2021/10/23 06:03:44;;;;;;;6.47;1.50;;;5.50;99.90;;;;;;5050883;28;20219;-61
2021/10/23 06:06:09;;;;;;;5.70;1.60;;;5.50;99.90;;;;;;5049886;28;20041;-61
2021/10/23 06:08:36;;;;;;;5.25;1.38;;;5.60;99.90;;;;;;5050564;28;20040;-61
2021/10/23 06:11:03;;;;;;;10.02;1.50;;;5.60;99.90;;;;;;5049777;28;20511;-61
2021/10/23 06:13:29;;;;;;;10.70;1.38;;;5.60;99.90;;;;;;5050862;28;20566;-61
2021/10/23 06:15:54;;;;;;;4.80;1.75;;;5.70;99.90;;;;;;5049650;28;20041;-62
2021/10/23 06:18:20;;;;;;;6.03;1.40;;;5.70;99.90;;;;;;5049209;28;20651;-64
2021/10/23 06:20:46;;;;;;;5.53;1.80;;;5.80;99.90;;;;;;5041494;28;20114;-62
2021/10/23 06:23:12;;;;;;;7.78;2.30;;;5.80;99.90;;;;;;5044111;28;20029;-60
2021/10/23 06:25:38;;;;;;;7.68;1.83;;;5.90;99.90;;;;;;5048818;28;20519;-61
2021/10/23 06:28:04;;;;;;;16.42;2.22;;;6.00;99.90;;;;;;5041290;28;20037;-62
2021/10/23 06:30:30;;;;;;;6.38;1.85;;;6.00;99.90;;;;;;5050255;28;20090;-60
2021/10/23 06:32:57;;;;;;;6.97;2.58;;;6.10;99.90;;;;;;5049345;28;20133;-61
2021/10/23 06:35:23;;;;;;;7.28;1.75;;;6.20;99.90;;;;;;5050526;28;20507;-61
2021/10/23 06:37:50;;;;;;;9.52;2.08;;;6.20;99.90;;;;;;5049671;28;20029;-60
2021/10/23 06:40:16;;;;;;;8.48;2.20;;;6.30;99.90;;;;;;5049875;28;20049;-62
2021/10/23 06:42:42;;;;;;;5.57;1.88;;;6.40;99.90;;;;;;5050397;28;20451;-61
2021/10/23 06:45:10;;;;;;;10.80;3.15;;;6.40;99.90;;;;;;5048850;28;20059;-61
2021/10/23 06:47:37;;;;;;;7.53;2.22;;;6.50;99.90;;;;;;5050358;28;20507;-62
2021/10/23 06:50:05;;;;;;;7.55;2.83;;;6.50;99.90;;;;;;5031127;28;20036;-60
2021/10/23 06:52:31;;;;;;;12.90;2.33;;;6.60;99.90;;;;;;5049888;28;20021;-61
2021/10/23 06:54:56;;;;;;;3.38;1.73;;;6.60;99.90;;;;;;5043719;28;20033;-60
2021/10/23 06:57:22;;;;;;;8.50;2.25;;;6.70;99.90;;;;;;5050259;28;20033;-61
2021/10/23 06:59:48;;;;;;;8.93;2.03;;;6.70;99.90;;;;;;5049384;28;20584;-64
2021/10/23 07:02:14;;;;;;;13.68;2.08;;;6.80;99.90;;;;;;5031134;28;20039;-63
2021/10/23 07:04:40;;;;;;;7.63;1.95;;;6.80;99.90;;;;;;5049817;28;20040;-63
2021/10/23 07:07:06;;;;;;;6.43;1.80;;;6.90;99.90;;;;;;5048391;28;20033;-60
2021/10/23 07:09:32;;;;;;;5.72;2.42;;;6.90;99.90;;;;;;5049139;28;20027;-63
2021/10/23 07:11:58;;;;;;;7.90;1.75;;;7.00;99.90;;;;;;5047954;28;20033;-61
2021/10/23 07:14:23;;;;;;;3.55;1.85;;;7.00;99.90;;;;;;5048749;28;20086;-61
2021/10/23 07:16:49;;;;;;;8.15;1.52;;;7.10;99.90;;;;;;5049128;28;20037;-61
2021/10/23 07:19:15;;;;;;;6.57;1.80;;;7.10;99.90;;;;;;5047919;28;20396;-64
2021/10/23 07:21:40;;;;;;;5.95;2.25;;;7.20;99.90;;;;;;5049265;28;20424;-63
2021/10/23 07:24:06;;;;;;;4.45;1.40;;;7.30;99.90;;;;;;5048588;28;20041;-62
2021/10/23 07:26:31;;;;;;;7.57;1.80;;;7.30;99.90;;;;;;5048248;28;20052;-63
2021/10/23 07:28:57;;;;;;;5.43;1.73;;;7.40;99.90;;;;;;5044803;28;20457;-61
2021/10/23 07:31:23;;;;;;;11.20;2.38;;;7.50;99.90;;;;;;5048826;28;20033;-63
2021/10/23 07:33:49;;;;;;;5.45;2.15;;;7.50;99.90;;;;;;5048798;28;20405;-61
2021/10/23 07:36:17;;;;;;;9.68;2.92;;;7.60;99.90;;;;;;5030376;28;20390;-62
2021/10/23 07:38:43;;;;;;;7.35;2.42;;;7.70;99.90;;;;;;5048551;28;20036;-64
2021/10/23 07:41:08;;;;;;;7.22;1.85;;;7.70;99.90;;;;;;5048201;28;20032;-61
2021/10/23 07:43:34;;;;;;;10.90;2.15;;;7.80;99.90;;;;;;5048756;28;20041;-63
2021/10/23 07:45:59;;;;;;;6.72;2.13;;;7.80;99.90;;;;;;5047835;28;20133;-62
2021/10/23 07:48:25;;;;;;;7.25;2.60;;;7.90;99.90;;;;;;5048780;28;20041;-63
2021/10/23 07:50:51;;;;;;;6.30;3.08;;;7.90;99.90;;;;;;5047675;28;20044;-63
2021/10/23 07:53:16;;;;;;;6.43;2.67;;;8.00;99.90;;;;;;5048591;28;20036;-62
2021/10/23 07:55:42;;;;;;;5.53;2.30;;;8.00;99.90;;;;;;5048638;28;20108;-61
2021/10/23 07:58:08;;;;;;;10.73;2.92;;;8.00;99.90;;;;;;5047101;28;20036;-61
2021/10/23 08:00:35;;;;;;;7.57;3.22;;;8.10;99.90;;;;;;5048674;28;20056;-62
2021/10/23 08:03:02;;;;;;;9.90;3.60;;;8.10;99.90;;;;;;5047903;28;20116;-61
2021/10/23 08:05:32;;;;;;;9.70;3.03;;;8.10;99.90;;;;;;5048117;28;20029;-63
2021/10/23 08:07:58;;;;;;;7.50;3.10;;;8.20;99.90;;;;;;5044074;28;20040;-64
2021/10/23 08:10:24;;;;;;;15.38;3.78;;;8.30;99.90;;;;;;5047203;28;20116;-62
2021/10/23 08:12:51;;;;;;;13.50;4.30;;;8.30;99.90;;;;;;5046426;28;20041;-65
2021/10/23 08:15:17;;;;;;;11.80;3.90;;;8.40;99.90;;;;;;5047376;28;20033;-62
2021/10/23 08:17:43;;;;;;;7.05;3.65;;;8.50;99.90;;;;;;5046758;28;20396;-63
2021/10/23 08:20:09;;;;;;;13.20;4.13;;;8.60;99.90;;;;;;5046129;28;20112;-62
2021/10/23 08:22:35;;;;;;;9.85;4.00;;;8.70;99.90;;;;;;5047232;28;20404;-61
2021/10/23 08:25:04;;;;;;;12.57;4.07;;;8.80;99.90;;;;;;5044312;28;20054;-61
2021/10/23 08:27:34;;;;;;;8.80;4.00;;;8.90;99.90;;;;;;5040556;28;20118;-62
2021/10/23 08:30:05;;;;;;;10.82;4.00;;;8.90;99.90;;;;;;5046303;28;20029;-62
2021/10/23 08:32:30;;;;;;;10.43;3.88;;;8.90;99.90;;;;;;5045269;28;20033;-62
2021/10/23 08:34:57;;;;;;;10.27;3.90;;;9.00;99.90;;;;;;5045864;28;20044;-62
2021/10/23 08:37:23;;;;;;;13.30;4.13;;;9.00;99.90;;;;;;5051572;28;20044;-62
2021/10/23 08:39:49;;;;;;;9.98;4.32;;;9.00;99.90;;;;;;5048465;28;20059;-62
2021/10/23 08:42:16;;;;;;;10.50;4.18;;;9.10;99.90;;;;;;5046493;28;20033;-62
2021/10/23 08:44:43;;;;;;;13.15;4.65;;;9.20;99.90;;;;;;5044607;28;20024;-63
2021/10/23 08:47:09;;;;;;;11.50;4.00;;;9.20;99.90;;;;;;5050588;28;20124;-62
2021/10/23 08:49:39;;;;;;;14.18;4.55;;;9.30;99.90;;;;;;5048342;28;20043;-62
2021/10/23 08:52:05;;;;;;;13.17;4.53;;;9.40;99.90;;;;;;5046060;28;20047;-62
2021/10/23 08:54:32;;;;;;;8.60;4.40;;;9.50;99.90;;;;;;5045095;28;20124;-61
2021/10/23 08:57:02;;;;;;;14.63;4.80;;;9.50;99.90;;;;;;5041838;28;20033;-63
2021/10/23 08:59:28;;;;;;;14.05;5.45;;;9.60;99.90;;;;;;5040062;28;20033;-62
2021/10/23 09:01:58;;;;;;;11.23;4.57;;;9.60;99.90;;;;;;5050609;28;20658;-61
2021/10/23 09:04:30;;;;;;;10.75;5.05;;;9.70;99.90;;;;;;5049439;28;20556;-62
2021/10/23 09:07:14;;;;;;;12.82;4.40;;;9.80;99.90;;;;;;5052196;28;20036;-63
2021/10/23 09:09:56;;;;;;;16.25;4.90;;;9.90;99.90;;;;;;5045210;28;20622;-62
2021/10/23 09:12:25;;;;;;;13.07;4.70;;;10.00;99.90;;;;;;5055286;28;20056;-62
2021/10/23 09:14:58;;;;;;;16.75;5.22;;;10.10;99.90;;;;;;5047017;28;20037;-64
2021/10/23 09:17:24;;;;;;;13.88;5.47;;;10.20;99.90;;;;;;5048891;28;20048;-62
2021/10/23 09:19:51;;;;;;;13.20;4.95;;;10.20;99.90;;;;;;5046647;28;20073;-69
2021/10/23 09:22:39;;;;;;;12.70;5.38;;;10.30;99.90;;;;;;5052326;28;20086;-63
2021/10/23 09:25:24;;;;;;;16.50;4.95;;;10.30;99.90;;;;;;5053243;28;20033;-62
2021/10/23 09:28:13;;;;;;;11.95;4.97;;;10.40;99.90;;;;;;5029157;28;20091;-62
2021/10/23 09:30:40;;;;;;;10.07;4.60;;;10.40;99.90;;;;;;5049579;28;20021;-61
2021/10/23 09:33:09;;;;;;;13.98;4.93;;;10.40;99.90;;;;;;5057271;28;20044;-62
2021/10/23 09:35:38;;;;;;;15.98;4.95;;;10.40;99.90;;;;;;5049120;28;20121;-61
2021/10/23 09:38:05;;;;;;;12.55;5.05;;;10.40;99.90;;;;;;5049961;28;20024;-62
2021/10/23 09:40:31;;;;;;;11.27;4.68;;;10.50;99.90;;;;;;5055999;28;20052;-61
2021/10/23 09:43:13;;;;;;;11.98;4.75;;;10.50;99.90;;;;;;5049272;28;20431;-61
2021/10/23 09:45:59;;;;;;;11.98;4.28;;;10.50;99.90;;;;;;5048204;28;20033;-62
2021/10/23 09:48:38;;;;;;;14.68;5.13;;;10.70;99.90;;;;;;5053443;28;20037;-61
2021/10/23 09:51:19;;;;;;;9.20;3.50;;;10.70;99.90;;;;;;5053922;28;20123;-61
2021/10/23 09:53:50;;;;;;;16.10;5.07;;;10.70;99.90;;;;;;5056087;28;20454;-63
2021/10/23 09:56:23;;;;;;;9.75;4.45;;;10.70;99.90;;;;;;5043524;28;20048;-63
2021/10/23 09:58:53;;;;;;;10.32;4.03;;;10.80;99.90;;;;;;5049456;28;20045;-63
2021/10/23 10:01:30;;;;;;;10.02;3.92;;;10.70;99.90;;;;;;5050276;28;20041;-62
2021/10/23 10:03:58;;;;;;;11.48;4.50;;;10.80;99.90;;;;;;5056629;28;20072;-62
2021/10/23 10:06:26;;;;;;;9.85;4.25;;;10.80;99.90;;;;;;5046797;28;20396;-63
2021/10/23 10:08:52;;;;;;;10.48;4.15;;;10.70;99.90;;;;;;5055752;28;20094;-62
2021/10/23 10:11:19;;;;;;;10.48;4.90;;;10.80;99.90;;;;;;5054813;28;20032;-63
2021/10/23 10:13:47;;;;;;;8.93;4.25;;;10.80;99.90;;;;;;5049231;28;20043;-62
2021/10/23 10:16:13;;;;;;;10.98;4.30;;;10.80;99.90;;;;;;5048095;28;20035;-62
2021/10/23 10:18:42;;;;;;;8.98;4.47;;;10.80;99.90;;;;;;5055706;28;20033;-62
2021/10/23 10:21:10;;;;;;;11.45;4.65;;;10.80;99.90;;;;;;5054915;28;20574;-61
2021/10/23 10:23:40;;;;;;;8.75;3.67;;;10.80;99.90;;;;;;5051852;28;20116;-62
2021/10/23 10:26:24;;;;;;;8.52;3.90;;;10.80;99.90;;;;;;5053135;28;20143;-61
2021/10/23 10:31:56;;;;;;;10.60;4.25;;;10.90;99.90;;;;;;5042074;28;20143;-63
2021/10/23 10:42:54;;;;;;;11.18;4.55;;;11.00;99.90;;;;;;5055623;28;20048;-61
2021/10/23 10:45:28;;;;;;;14.77;3.45;;;11.00;99.90;;;;;;5028596;28;20033;-61
2021/10/23 10:48:26;;;;;;;11.10;3.58;;;11.10;99.90;;;;;;5050005;28;20028;-61
2021/10/23 10:51:06;;;;;;;9.07;3.85;;;11.10;99.90;;;;;;5039449;28;20064;-62
2021/10/23 10:53:42;;;;;;;14.20;4.85;;;11.10;99.90;;;;;;5054054;28;20111;-62
2021/10/23 10:56:13;;;;;;;10.13;3.67;;;11.10;99.90;;;;;;5044744;28;20037;-62
2021/10/23 10:58:55;;;;;;;8.98;3.38;;;11.20;99.90;;;;;;5040730;28;20033;-63
2021/10/23 11:01:25;;;;;;;12.43;3.92;;;11.20;99.90;;;;;;5043834;28;20036;-62
2021/10/23 11:04:01;;;;;;;11.00;3.78;;;11.40;99.90;;;;;;5025535;28;20040;-62
2021/10/23 11:06:34;;;;;;;9.82;3.72;;;11.40;99.90;;;;;;5056341;28;20040;-62
2021/10/23 11:09:11;;;;;;;9.23;3.83;;;11.40;99.90;;;;;;5046210;28;20442;-61
2021/10/23 11:11:52;;;;;;;12.23;3.63;;;11.50;99.90;;;;;;5044566;28;20036;-62
2021/10/23 11:14:23;;;;;;;;;;;11.60;99.90;;;;;;5040424;28;20043;-62
2021/10/23 11:16:59;;;;;;;8.27;3.55;;;11.70;99.90;;;;;;5054749;28;19913;-61
2021/10/23 11:19:35;;;;;;;7.28;3.22;;;11.70;99.90;;;;;;5055078;28;20539;-63
2021/10/23 11:22:22;;;;;;;12.15;3.78;;;11.70;99.90;;;;;;5054617;28;20029;-62
2021/10/23 11:24:58;;;;;;;9.35;3.75;;;11.80;99.90;;;;;;5053295;28;20492;-61
2021/10/23 11:27:45;;;;;;;12.02;4.53;;;11.70;99.90;;;;;;5044409;28;20029;-62
2021/10/23 11:30:16;;;;;;;9.38;3.78;;;11.80;99.90;;;;;;5051813;28;20037;-63
2021/10/23 11:32:41;;;;;;;;;;;11.80;99.90;;;;;;5036211;28;20033;-62
2021/10/23 11:35:08;;;;;;;8.60;3.75;;;11.90;99.90;;;;;;5052372;28;19921;-61
2021/10/23 11:37:34;;;;;;;11.05;3.38;;;12.00;99.90;;;;;;5050726;28;20039;-62
2021/10/23 11:40:08;;;;;;;10.05;3.72;;;11.90;99.90;;;;;;5049923;28;20405;-62
2021/10/23 11:42:35;;;;;;;6.70;2.95;;;12.00;99.90;;;;;;5050189;28;20119;-62
2021/10/23 11:45:07;;;;;;;10.85;3.28;;;11.90;99.90;;;;;;5040229;28;20032;-61
2021/10/23 11:47:33;;;;;;;12.50;3.67;;;11.90;99.90;;;;;;5033591;28;20474;-61
2021/10/23 11:50:16;;;;;;;8.13;3.30;;;12.00;99.90;;;;;;5058538;28;20037;-62
2021/10/23 11:53:04;;;;;;;7.32;2.67;;;12.00;99.90;;;;;;5045377;28;20076;-62
2021/10/23 11:55:32;;;;;;;7.47;3.88;;;12.00;99.90;;;;;;5054861;28;20041;-61
2021/10/23 11:58:04;;;;;;;6.88;3.35;;;12.10;99.90;;;;;;5047489;28;20061;-62
2021/10/23 12:00:33;;;;;;;8.90;3.47;;;12.10;99.90;;;;;;5050959;28;20067;-62
2021/10/23 12:03:03;;;;;;;7.70;3.15;;;12.00;99.90;;;;;;5047867;28;20065;-62
2021/10/23 12:05:37;;;;;;;5.60;2.63;;;12.00;99.90;;;;;;5049705;28;20041;-62
2021/10/23 12:08:23;;;;;;;7.03;3.13;;;12.00;99.90;;;;;;5043985;28;20369;-62
2021/10/23 12:11:07;;;;;;;8.90;3.83;;;12.10;99.90;;;;;;5054145;28;20064;-62
2021/10/23 12:13:59;;;;;;;11.15;3.35;;;12.10;99.90;;;;;;5048367;28;20060;-62
2021/10/23 12:16:35;;;;;;;10.65;3.42;;;12.10;99.90;;;;;;5050571;28;20033;-62
2021/10/23 12:19:40;;;;;;;6.22;2.78;;;12.10;99.90;;;;;;5042303;28;20025;-62
2021/10/23 12:22:13;;;;;;;11.50;3.47;;;12.10;99.90;;;;;;5048739;28;20037;-62
2021/10/23 12:24:44;;;;;;;14.10;3.10;;;12.10;99.90;;;;;;5045145;28;20459;-61
2021/10/23 12:27:22;;;;;;;6.95;2.90;;;12.10;99.90;;;;;;5045993;28;20029;-62
2021/10/23 12:30:02;;;;;;;7.00;3.00;;;12.20;99.90;;;;;;5043580;28;20047;-62
2021/10/23 12:32:41;;;;;;;5.88;2.55;;;12.10;99.90;;;;;;5034052;28;20488;-62
2021/10/23 12:35:24;;;;;;;8.35;2.63;;;12.20;99.90;;;;;;5044116;28;20039;-62
2021/10/23 12:37:56;;;;;;;9.77;2.83;;;12.30;99.90;;;;;;5049769;28;20067;-62
2021/10/23 12:40:28;;;;;;;7.70;3.05;;;12.30;99.90;;;;;;5042171;28;20411;-62
2021/10/23 12:43:09;;;;;;;11.35;3.13;;;12.20;99.90;;;;;;5051917;28;20124;-62
2021/10/23 12:45:49;;;;;;;4.90;2.05;;;12.20;99.90;;;;;;5050959;28;20045;-61
2021/10/23 12:48:16;;;;;;;5.63;2.25;;;12.30;99.90;;;;;;5052012;28;20041;-61
2021/10/23 12:50:44;;;;;;;5.15;2.40;;;12.30;99.90;;;;;;5051412;28;20111;-61
2021/10/23 12:53:10;;;;;;;6.00;2.72;;;12.20;99.90;;;;;;5046070;28;20025;-62
2021/10/23 12:55:37;;;;;;;4.85;2.60;;;12.20;99.90;;;;;;5055211;28;20032;-61
2021/10/23 12:58:03;;;;;;;9.50;2.72;;;12.20;99.90;;;;;;5051128;28;20746;-62
2021/10/23 13:00:29;;;;;;;7.80;2.85;;;12.20;99.90;;;;;;5052435;28;20120;-62
2021/10/23 13:02:56;;;;;;;5.72;3.00;;;12.20;99.90;;;;;;5053242;28;20075;-62
2021/10/23 13:05:22;;;;;;;7.63;2.97;;;12.20;99.90;;;;;;5047091;28;20079;-61
2021/10/23 13:07:48;;;;;;;8.18;3.10;;;12.20;99.90;;;;;;5044583;28;20037;-61
2021/10/23 13:10:14;;;;;;;6.22;2.75;;;12.20;99.90;;;;;;5051104;28;20033;-62